createdAt,value
2017-09-12T00:01:12.973Z,71.60
2017-09-12T00:03:40.525Z,71.60
2017-09-12T00:06:08.008Z,71.90
2017-09-12T00:08:36.246Z,71.80
2017-09-12T00:11:03.721Z,71.80
2017-09-12T00:13:31.216Z,72.00
2017-09-12T00:15:59.020Z,72.60
2017-09-12T00:18:26.489Z,72.30
2017-09-12T00:20:53.948Z,72.00
2017-09-12T00:23:21.457Z,72.00
2017-09-12T00:25:48.911Z,72.40
2017-09-12T00:28:16.582Z,72.20
2017-09-12T00:30:44.096Z,72.00
2017-09-12T00:33:11.576Z,72.90
2017-09-12T00:35:39.859Z,72.20
2017-09-12T00:38:08.097Z,72.10
2017-09-12T00:40:35.616Z,72.00
2017-09-12T00:43:03.083Z,72.30
2017-09-12T00:45:30.564Z,72.00
2017-09-12T00:47:58.049Z,72.10
2017-09-12T00:50:25.517Z,72.10
2017-09-12T00:52:53.777Z,72.00
2017-09-12T00:55:21.299Z,72.00
2017-09-12T00:57:48.770Z,71.70
2017-09-12T01:00:16.261Z,71.50
2017-09-12T01:02:44.749Z,71.80
2017-09-12T01:05:12.985Z,70.90
2017-09-12T01:07:40.486Z,70.80
2017-09-12T01:10:08.774Z,70.60
2017-09-12T01:12:36.245Z,70.50
2017-09-12T01:15:03.872Z,70.60
2017-09-12T01:17:32.123Z,70.80
2017-09-12T01:19:59.594Z,70.80
2017-09-12T01:22:27.922Z,70.90
2017-09-12T01:24:55.437Z,70.80
2017-09-12T01:27:24.101Z,71.10
2017-09-12T01:29:52.527Z,71.00
2017-09-12T01:32:20.015Z,71.30
2017-09-12T01:34:48.330Z,71.40
2017-09-12T01:37:16.560Z,71.60
2017-09-12T01:39:44.270Z,71.40
2017-09-12T01:42:12.514Z,71.80
2017-09-12T01:44:39.995Z,71.70
2017-09-12T01:47:07.503Z,71.60
2017-09-12T01:49:35.398Z,71.80
2017-09-12T01:52:03.218Z,71.50
2017-09-12T01:54:30.720Z,71.40
2017-09-12T01:56:58.253Z,71.50
2017-09-12T01:59:25.805Z,71.50
2017-09-12T02:01:53.268Z,71.50
2017-09-12T02:04:20.770Z,71.30
2017-09-12T02:06:48.248Z,71.10
2017-09-12T02:09:16.519Z,71.20
2017-09-12T02:11:44.754Z,71.00
2017-09-12T02:14:12.226Z,71.00
2017-09-12T02:16:39.789Z,71.10
2017-09-12T02:19:07.265Z,70.70
2017-09-12T02:21:36.143Z,70.40
2017-09-12T02:24:03.621Z,70.40
2017-09-12T02:26:31.868Z,69.90
2017-09-12T02:28:59.393Z,69.80
2017-09-12T02:31:26.907Z,70.20
2017-09-12T02:33:55.199Z,70.40
2017-09-12T02:36:23.583Z,70.50
2017-09-12T02:38:51.050Z,70.50
2017-09-12T02:41:18.942Z,70.40
2017-09-12T02:43:46.854Z,70.40
2017-09-12T02:46:15.121Z,71.40
2017-09-12T02:48:43.394Z,72.60
2017-09-12T02:51:11.647Z,72.50
2017-09-12T02:53:39.144Z,72.50
2017-09-12T02:56:07.424Z,73.80
2017-09-12T02:58:35.720Z,73.10
2017-09-12T03:01:03.194Z,73.10
2017-09-12T03:03:30.682Z,72.80
2017-09-12T03:05:58.351Z,73.20
2017-09-12T03:08:25.840Z,74.50
2017-09-12T03:10:53.405Z,75.20
2017-09-12T03:13:21.654Z,75.60
2017-09-12T03:15:49.892Z,76.40
2017-09-12T03:18:17.722Z,75.90
2017-09-12T03:20:45.223Z,75.90
2017-09-12T03:23:12.697Z,76.20
2017-09-12T03:25:40.162Z,76.50
2017-09-12T03:28:07.637Z,76.00
2017-09-12T03:30:36.101Z,76.00
2017-09-12T03:33:03.590Z,76.00
2017-09-12T03:35:31.057Z,75.30
2017-09-12T03:37:58.571Z,75.40
2017-09-12T03:40:26.078Z,75.70
2017-09-12T03:42:53.908Z,75.70
2017-09-12T03:45:22.153Z,76.60
2017-09-12T03:47:49.916Z,76.50
2017-09-12T03:50:17.369Z,77.00
2017-09-12T03:52:44.859Z,77.40
2017-09-12T03:55:12.346Z,77.90
2017-09-12T03:57:39.837Z,78.50
2017-09-12T04:00:07.468Z,79.20
2017-09-12T04:02:34.973Z,80.20
2017-09-12T04:05:02.433Z,80.90
2017-09-12T04:07:29.969Z,80.90
2017-09-12T04:09:58.234Z,82.00
2017-09-12T04:12:25.731Z,82.40
2017-09-12T04:14:53.198Z,82.50
2017-09-12T04:17:20.728Z,82.80
2017-09-12T04:19:48.226Z,82.70
2017-09-12T04:22:16.458Z,83.60
2017-09-12T04:24:43.936Z,83.50
2017-09-12T04:27:11.549Z,83.80
2017-09-12T04:29:39.049Z,84.20
2017-09-12T04:32:06.531Z,84.20
2017-09-12T04:34:34.956Z,84.20
2017-09-12T04:37:02.410Z,84.10
2017-09-12T04:39:29.895Z,84.20
2017-09-12T04:41:57.377Z,84.40
2017-09-12T04:44:25.636Z,85.10
2017-09-12T04:46:53.125Z,85.10
2017-09-12T04:49:20.619Z,85.00
2017-09-12T04:51:48.143Z,84.50
2017-09-12T04:54:16.391Z,84.60
2017-09-12T04:56:43.918Z,84.60
2017-09-12T04:59:11.387Z,85.00
2017-09-12T05:01:38.879Z,84.30
2017-09-12T05:04:07.125Z,84.40
2017-09-12T05:06:34.621Z,84.40
2017-09-12T05:09:03.116Z,83.80
2017-09-12T05:11:30.653Z,83.30
2017-09-12T05:13:58.897Z,83.10
2017-09-12T05:16:26.372Z,83.00
2017-09-12T05:18:53.850Z,82.70
2017-09-12T05:21:22.598Z,82.90
2017-09-12T05:23:50.074Z,82.80
2017-09-12T05:26:18.567Z,82.50
2017-09-12T05:28:46.841Z,81.70
2017-09-12T05:31:14.323Z,81.70
2017-09-12T05:33:42.067Z,81.60
2017-09-12T05:36:10.298Z,81.80
2017-09-12T05:38:37.777Z,81.80
2017-09-12T05:41:05.393Z,81.80
2017-09-12T05:43:32.863Z,81.50
2017-09-12T05:46:00.379Z,81.90
2017-09-12T05:48:28.624Z,81.80
2017-09-12T05:50:56.291Z,81.70
2017-09-12T05:53:23.769Z,81.60
2017-09-12T05:55:52.039Z,82.10
2017-09-12T05:58:20.271Z,81.80
2017-09-12T06:00:47.820Z,81.60
2017-09-12T06:03:15.316Z,81.60
2017-09-12T06:05:42.800Z,82.10
2017-09-12T06:08:11.263Z,81.60
2017-09-12T06:10:39.609Z,81.00
2017-09-12T06:13:07.102Z,81.50
2017-09-12T06:15:35.362Z,81.40
2017-09-12T06:18:02.839Z,81.40
2017-09-12T06:20:30.310Z,81.40
2017-09-12T06:22:58.595Z,81.80
2017-09-12T06:25:26.116Z,81.80
2017-09-12T06:27:53.596Z,81.30
2017-09-12T06:30:21.070Z,81.30
2017-09-12T06:32:48.566Z,80.80
2017-09-12T06:35:16.018Z,80.50
2017-09-12T06:37:43.497Z,80.20
2017-09-12T06:40:10.960Z,80.10
2017-09-12T06:42:38.482Z,78.90
2017-09-12T06:45:05.937Z,78.50
2017-09-12T06:47:33.403Z,78.10
2017-09-12T06:50:00.896Z,77.00
2017-09-12T06:52:29.166Z,76.90
2017-09-12T06:54:57.453Z,76.70
2017-09-12T06:57:26.413Z,76.70
2017-09-12T06:59:53.923Z,76.60
2017-09-12T07:02:22.166Z,75.60
2017-09-12T07:04:49.622Z,75.60
2017-09-12T07:07:17.124Z,75.60
2017-09-12T07:09:44.573Z,75.10
2017-09-12T07:12:12.062Z,76.10
2017-09-12T07:14:39.914Z,75.90
2017-09-12T07:17:07.420Z,76.20
2017-09-12T07:19:34.904Z,76.60
2017-09-12T07:22:03.125Z,77.30
2017-09-12T07:24:30.621Z,77.20
2017-09-12T07:26:59.570Z,77.50
2017-09-12T07:29:27.116Z,77.50
2017-09-12T07:31:54.582Z,77.90
2017-09-12T07:34:22.139Z,77.20
2017-09-12T07:36:49.623Z,77.60
2017-09-12T07:39:17.109Z,77.90
2017-09-12T07:41:45.401Z,77.40
2017-09-12T07:44:12.866Z,77.30
2017-09-12T07:46:40.366Z,77.30
2017-09-12T07:49:07.995Z,78.60
2017-09-12T07:51:35.924Z,79.60
2017-09-12T07:54:04.176Z,79.10
2017-09-12T07:56:31.646Z,79.10
2017-09-12T07:58:59.117Z,79.70
2017-09-12T08:01:27.335Z,82.30
2017-09-12T08:03:54.824Z,81.90
2017-09-12T08:06:22.652Z,83.30
2017-09-12T08:08:50.443Z,83.20
2017-09-12T08:11:17.896Z,83.70
2017-09-12T08:13:45.411Z,84.00
2017-09-12T08:16:13.656Z,83.30
2017-09-12T08:18:41.156Z,83.30
2017-09-12T08:21:08.690Z,81.30
2017-09-12T08:23:36.934Z,77.40
2017-09-12T08:26:04.792Z,77.30
2017-09-12T08:28:32.255Z,76.60
2017-09-12T08:30:59.728Z,77.30
2017-09-12T08:33:28.057Z,76.30
2017-09-12T08:35:55.660Z,75.70
2017-09-12T08:38:23.151Z,75.40
2017-09-12T08:40:51.392Z,75.10
2017-09-12T08:43:19.084Z,75.00
2017-09-12T08:45:46.563Z,74.00
2017-09-12T08:48:14.075Z,74.90
2017-09-12T08:50:41.567Z,74.00
2017-09-12T08:53:09.149Z,72.60
2017-09-12T08:55:36.649Z,70.90
2017-09-12T08:58:04.141Z,71.00
2017-09-12T09:00:32.615Z,70.10
2017-09-12T09:03:00.861Z,69.30
2017-09-12T09:05:28.332Z,69.20
2017-09-12T09:07:56.596Z,69.60
2017-09-12T09:10:24.079Z,69.60
2017-09-12T09:12:51.719Z,68.90
2017-09-12T09:15:19.194Z,69.90
2017-09-12T09:17:46.710Z,70.30
2017-09-12T09:20:14.246Z,70.10
2017-09-12T09:22:41.845Z,69.80
2017-09-12T09:25:09.329Z,67.40
2017-09-12T09:27:37.059Z,65.90
2017-09-12T09:30:05.635Z,67.10
2017-09-12T09:32:33.095Z,67.10
2017-09-12T09:35:00.572Z,67.60
2017-09-12T09:37:28.041Z,69.30
2017-09-12T09:39:57.093Z,66.50
2017-09-12T09:42:24.600Z,66.40
2017-09-12T09:44:53.466Z,65.00
2017-09-12T09:47:20.939Z,64.90
2017-09-12T09:49:49.211Z,65.90
2017-09-12T09:52:16.686Z,66.00
2017-09-12T09:54:44.165Z,66.00
2017-09-12T09:57:11.664Z,65.00
2017-09-12T09:59:39.171Z,64.90
2017-09-12T10:02:06.711Z,64.60
2017-09-12T10:04:34.961Z,64.40
2017-09-12T10:07:02.491Z,64.40
2017-09-12T10:09:29.957Z,63.30
2017-09-12T10:11:57.484Z,63.10
2017-09-12T10:14:24.981Z,63.70
2017-09-12T10:16:52.453Z,64.40
2017-09-12T10:19:19.941Z,63.60
2017-09-12T10:21:48.178Z,63.00
2017-09-12T10:24:15.854Z,63.00
2017-09-12T10:26:44.094Z,60.40
2017-09-12T10:29:11.553Z,60.50
2017-09-12T10:31:39.012Z,60.50
2017-09-12T10:34:06.499Z,59.50
2017-09-12T10:36:34.068Z,58.50
2017-09-12T10:39:02.318Z,57.00
2017-09-12T10:41:29.808Z,57.00
2017-09-12T10:43:58.051Z,55.80
2017-09-12T10:46:25.602Z,55.80
2017-09-12T10:48:53.098Z,56.30
2017-09-12T10:51:20.589Z,56.10
2017-09-12T10:53:48.051Z,56.20
2017-09-12T10:56:15.572Z,55.90
2017-09-12T10:58:43.856Z,54.90
2017-09-12T11:01:12.146Z,55.70
2017-09-12T11:03:39.850Z,55.70
2017-09-12T11:06:07.334Z,56.40
2017-09-12T11:08:36.143Z,57.90
2017-09-12T11:11:04.405Z,57.80
2017-09-12T11:13:32.701Z,58.60
2017-09-12T11:16:00.198Z,58.10
2017-09-12T11:18:27.689Z,57.10
2017-09-12T11:20:55.165Z,56.60
2017-09-12T11:23:23.417Z,55.90
2017-09-12T11:25:50.978Z,55.90
2017-09-12T11:28:18.462Z,56.20
2017-09-12T11:30:45.946Z,56.80
2017-09-12T11:33:13.676Z,58.20
2017-09-12T11:35:41.915Z,57.50
2017-09-12T11:38:09.427Z,57.40
2017-09-12T11:40:36.948Z,57.40
2017-09-12T11:43:05.298Z,56.00
2017-09-12T11:45:33.000Z,55.80
2017-09-12T11:48:01.354Z,59.20
2017-09-12T11:50:28.807Z,59.10
2017-09-12T11:52:56.326Z,57.70
2017-09-12T11:55:23.794Z,57.80
2017-09-12T11:57:51.415Z,57.00
2017-09-12T12:00:20.214Z,58.20
2017-09-12T12:02:48.448Z,59.80
2017-09-12T12:05:16.408Z,59.80
2017-09-12T12:07:44.427Z,60.30
2017-09-12T12:10:13.621Z,60.90
2017-09-12T12:12:41.899Z,61.10
2017-09-12T12:15:10.154Z,62.30
2017-09-12T12:17:38.418Z,62.10
2017-09-12T12:20:05.877Z,62.10
2017-09-12T12:22:34.148Z,62.70
2017-09-12T12:25:01.627Z,62.70
2017-09-12T12:27:29.916Z,62.00
2017-09-12T12:29:58.141Z,60.90
2017-09-12T12:32:25.799Z,60.90
2017-09-12T12:34:53.434Z,59.80
2017-09-12T12:37:20.926Z,58.80
2017-09-12T12:39:48.467Z,57.20
2017-09-12T12:42:15.937Z,54.60
2017-09-12T12:44:43.649Z,54.80
2017-09-12T12:47:11.889Z,54.00
2017-09-12T12:49:39.425Z,54.00
2017-09-12T12:52:06.946Z,54.50
2017-09-12T12:54:35.186Z,54.10
2017-09-12T12:57:02.679Z,54.10
2017-09-12T12:59:30.927Z,54.60
2017-09-12T13:01:58.460Z,54.60
2017-09-12T13:04:25.952Z,54.70
2017-09-12T13:06:53.452Z,54.80
2017-09-12T13:09:21.017Z,54.10
2017-09-12T13:11:48.488Z,53.90
2017-09-12T13:14:15.964Z,54.00
2017-09-12T13:16:43.436Z,53.20
2017-09-12T13:19:11.734Z,55.70
2017-09-12T13:21:40.243Z,56.20
2017-09-12T13:24:07.715Z,56.20
2017-09-12T13:26:35.220Z,56.40
2017-09-12T13:29:03.509Z,56.90
2017-09-12T13:31:31.836Z,55.90
2017-09-12T13:33:59.285Z,55.80
2017-09-12T13:36:26.979Z,54.80
2017-09-12T13:38:54.431Z,54.20
2017-09-12T13:41:21.896Z,54.80
2017-09-12T13:43:50.134Z,55.30
2017-09-12T13:46:17.619Z,55.20
2017-09-12T13:48:45.105Z,55.20
2017-09-12T13:51:13.332Z,55.10
2017-09-12T13:53:41.078Z,55.10
2017-09-12T13:56:08.567Z,55.00
2017-09-12T13:58:36.133Z,55.50
2017-09-12T14:01:03.706Z,56.10
2017-09-12T14:03:31.332Z,57.40
2017-09-12T14:05:58.924Z,57.50
2017-09-12T14:08:27.255Z,58.80
2017-09-12T14:10:54.895Z,58.80
2017-09-12T14:13:22.378Z,58.50
2017-09-12T14:15:49.876Z,59.80
2017-09-12T14:18:17.378Z,61.10
2017-09-12T14:20:44.904Z,62.20
2017-09-12T14:23:13.151Z,62.50
2017-09-12T14:25:40.641Z,62.50
2017-09-12T14:28:08.980Z,63.00
2017-09-12T14:30:36.446Z,63.00
2017-09-12T14:33:03.975Z,63.70
2017-09-12T14:35:31.511Z,63.40
2017-09-12T14:37:58.984Z,63.70
2017-09-12T14:40:26.497Z,64.20
2017-09-12T14:42:53.958Z,64.00
2017-09-12T14:45:21.513Z,62.80
2017-09-12T14:47:49.018Z,61.20
2017-09-12T14:50:16.592Z,59.90
2017-09-12T14:52:44.264Z,58.80
2017-09-12T14:55:12.528Z,58.50
2017-09-12T14:57:39.998Z,57.50
2017-09-12T15:00:07.476Z,58.00
2017-09-12T15:02:35.785Z,57.10
2017-09-12T15:05:04.051Z,57.00
2017-09-12T15:07:32.288Z,57.10
2017-09-12T15:09:59.769Z,57.20
2017-09-12T15:12:28.067Z,56.00
2017-09-12T15:14:55.575Z,56.00
2017-09-12T15:17:23.571Z,56.40
2017-09-12T15:19:51.223Z,56.50
2017-09-12T15:22:18.768Z,56.50
2017-09-12T15:24:47.098Z,57.30
2017-09-12T15:27:14.577Z,57.80
2017-09-12T15:29:42.204Z,57.90
2017-09-12T15:32:10.848Z,58.30
2017-09-12T15:34:38.328Z,58.40
2017-09-12T15:37:07.537Z,58.20
2017-09-12T15:39:35.019Z,58.10
2017-09-12T15:42:03.029Z,59.10
2017-09-12T15:44:30.568Z,60.10
2017-09-12T15:46:58.072Z,59.90
2017-09-12T15:49:26.436Z,76.70
2017-09-12T15:51:53.875Z,76.40
2017-09-12T15:54:21.689Z,78.20
2017-09-12T15:56:49.920Z,77.20
2017-09-12T15:59:17.394Z,77.10
2017-09-12T16:01:45.685Z,76.90
2017-09-12T16:04:13.953Z,77.00
2017-09-12T16:06:42.229Z,77.70
2017-09-12T16:09:18.476Z,77.50
2017-09-12T16:11:46.302Z,84.20
2017-09-12T16:14:13.849Z,78.50
2017-09-12T16:16:41.333Z,77.50
2017-09-12T16:21:05.496Z,81.50
2017-09-12T16:23:33.039Z,81.40
2017-09-12T16:26:00.582Z,81.90
2017-09-12T16:28:28.120Z,83.20
2017-09-12T16:30:55.609Z,86.00
2017-09-12T16:33:23.861Z,84.50
2017-09-12T16:35:52.897Z,83.10
2017-09-12T16:38:21.153Z,83.80
2017-09-12T16:40:49.869Z,81.50
2017-09-12T16:43:18.162Z,80.40
2017-09-12T16:45:45.694Z,80.40
2017-09-12T16:48:14.114Z,79.60
2017-09-12T16:50:41.701Z,79.60
2017-09-12T16:53:09.269Z,80.50
2017-09-12T16:55:37.764Z,80.20
2017-09-12T16:58:06.478Z,80.80
2017-09-12T17:00:34.906Z,79.80
2017-09-12T17:03:03.210Z,82.30
2017-09-12T17:05:31.689Z,82.40
2017-09-12T17:07:59.316Z,82.40
2017-09-12T17:10:27.897Z,81.90
2017-09-12T17:12:55.545Z,81.90
2017-09-12T17:15:24.843Z,82.00
2017-09-12T17:17:52.394Z,82.50
2017-09-12T17:20:19.937Z,83.00
2017-09-12T17:22:48.054Z,83.20
2017-09-12T17:25:17.167Z,83.60
2017-09-12T17:27:45.619Z,83.30
2017-09-12T17:30:13.113Z,83.30
2017-09-12T17:32:40.713Z,83.30
2017-09-12T17:35:08.220Z,83.10
2017-09-12T17:37:36.483Z,83.20
2017-09-12T17:40:03.975Z,83.20
2017-09-12T17:42:32.438Z,83.60
2017-09-12T17:45:00.721Z,83.60
2017-09-12T17:47:30.327Z,83.60
2017-09-12T17:49:58.589Z,83.70
2017-09-12T17:52:26.205Z,83.60
2017-09-12T17:54:53.746Z,83.30
2017-09-12T17:57:21.246Z,83.70
2017-09-12T17:59:49.240Z,84.20
2017-09-12T18:02:17.488Z,83.10
2017-09-12T18:04:45.111Z,83.00
2017-09-12T18:07:12.616Z,82.30
2017-09-12T18:09:40.656Z,82.10
2017-09-12T18:12:08.162Z,82.20
2017-09-12T18:14:35.826Z,83.00
2017-09-12T18:17:04.469Z,82.00
2017-09-12T18:19:31.985Z,82.00
2017-09-12T18:22:00.257Z,82.10
2017-09-12T18:24:29.458Z,82.10
2017-09-12T18:26:59.522Z,81.70
2017-09-12T18:29:27.177Z,81.70
2017-09-12T18:31:54.706Z,82.00
2017-09-12T18:34:22.273Z,81.90
2017-09-12T18:36:49.774Z,82.20
2017-09-12T18:39:17.257Z,82.70
2017-09-12T18:41:45.502Z,82.50
2017-09-12T18:44:13.039Z,82.50
2017-09-12T18:46:41.112Z,82.20
2017-09-12T18:49:12.504Z,81.80
2017-09-12T18:51:41.518Z,81.30
2017-09-12T18:54:09.931Z,80.50
2017-09-12T18:56:37.471Z,80.40
2017-09-12T18:59:05.013Z,80.40
2017-09-12T19:01:34.003Z,79.80
2017-09-12T19:04:02.283Z,80.20
2017-09-12T19:06:30.543Z,80.30
2017-09-12T19:08:58.151Z,80.20
2017-09-12T19:11:25.740Z,79.50
2017-09-12T19:13:53.404Z,79.80
2017-09-12T19:16:21.193Z,80.00
2017-09-12T19:18:48.731Z,79.60
2017-09-12T19:21:16.582Z,79.60
2017-09-12T19:23:44.247Z,79.90
2017-09-12T19:26:11.781Z,80.00
2017-09-12T19:28:39.337Z,79.20
2017-09-12T19:31:07.068Z,79.40
2017-09-12T19:33:35.382Z,80.00
2017-09-12T19:36:02.869Z,80.00
2017-09-12T19:38:30.476Z,79.40
2017-09-12T19:40:58.703Z,79.30
2017-09-12T19:43:26.236Z,79.30
2017-09-12T19:45:53.747Z,78.80
2017-09-12T19:48:21.347Z,79.00
2017-09-12T19:50:48.867Z,79.00
2017-09-12T19:53:17.595Z,79.10
2017-09-12T19:55:45.325Z,78.60
2017-09-12T19:58:13.575Z,78.90
2017-09-12T20:00:41.046Z,78.90
2017-09-12T20:03:08.624Z,78.90
2017-09-12T20:05:36.923Z,78.10
2017-09-12T20:08:04.411Z,78.00
2017-09-12T20:10:33.186Z,78.30
2017-09-12T20:13:00.670Z,78.30
2017-09-12T20:15:28.199Z,78.10
2017-09-12T20:17:55.742Z,78.40
2017-09-12T20:20:23.228Z,77.90
2017-09-12T20:22:50.874Z,78.20
2017-09-12T20:25:18.363Z,77.70
2017-09-12T20:27:46.781Z,78.30
2017-09-12T20:30:15.086Z,78.60
2017-09-12T20:32:42.653Z,78.40
2017-09-12T20:35:10.153Z,78.10
2017-09-12T20:37:38.458Z,78.00
2017-09-12T20:40:05.954Z,77.80
2017-09-12T20:42:33.556Z,77.70
2017-09-12T20:45:01.812Z,78.00
2017-09-12T20:47:29.353Z,78.00
2017-09-12T20:49:57.043Z,78.70
2017-09-12T20:52:24.564Z,77.70
2017-09-12T20:54:52.256Z,78.10
2017-09-12T20:57:19.739Z,77.90
2017-09-12T20:59:47.961Z,78.10
2017-09-12T21:02:15.493Z,78.10
2017-09-12T21:04:42.971Z,78.20
2017-09-12T21:07:10.482Z,77.90
2017-09-12T21:09:39.372Z,77.70
2017-09-12T21:12:06.981Z,77.60
2017-09-12T21:14:34.493Z,78.30
2017-09-12T21:17:04.278Z,77.80
2017-09-12T21:19:32.579Z,78.00
2017-09-12T21:22:00.852Z,78.10
2017-09-12T21:24:28.338Z,78.00
2017-09-12T21:26:55.840Z,78.20
2017-09-12T21:29:23.357Z,77.30
2017-09-12T21:31:51.040Z,77.60
2017-09-12T21:34:18.896Z,77.70
2017-09-12T21:36:46.439Z,77.90
2017-09-12T21:39:13.949Z,77.80
2017-09-12T21:41:41.406Z,78.30
2017-09-12T21:44:08.922Z,78.10
2017-09-12T21:46:36.457Z,77.90
2017-09-12T21:49:04.519Z,78.20
2017-09-12T21:51:32.780Z,78.60
2017-09-12T21:54:00.259Z,78.60
2017-09-12T21:56:27.850Z,78.70
2017-09-12T21:58:55.378Z,78.80
2017-09-12T22:01:22.855Z,78.70
2017-09-12T22:03:50.627Z,78.70
2017-09-12T22:06:18.111Z,78.60
2017-09-12T22:08:45.809Z,79.10
2017-09-12T22:11:13.326Z,78.70
2017-09-12T22:13:41.626Z,78.50
2017-09-12T22:16:22.207Z,78.50
2017-09-12T22:18:50.447Z,78.50
2017-09-12T22:21:18.110Z,78.40
2017-09-12T22:23:45.576Z,78.20
2017-09-12T22:26:13.124Z,77.60
2017-09-12T22:28:40.640Z,77.70
2017-09-12T22:31:08.129Z,77.10
2017-09-12T22:33:35.718Z,77.20
2017-09-12T22:36:03.183Z,76.70
2017-09-12T22:38:30.709Z,76.70
2017-09-12T22:40:58.182Z,75.70
2017-09-12T22:43:25.675Z,76.20
2017-09-12T22:45:53.318Z,75.70
2017-09-12T22:48:20.821Z,76.00
2017-09-12T22:50:48.388Z,75.80
2017-09-12T22:53:15.871Z,76.80
2017-09-12T22:55:43.466Z,76.40
2017-09-12T22:58:10.940Z,76.30
2017-09-12T23:00:38.510Z,76.30
2017-09-12T23:03:05.991Z,76.50
2017-09-12T23:05:33.481Z,76.70
2017-09-12T23:08:00.952Z,76.60
2017-09-12T23:10:29.194Z,75.70
2017-09-12T23:12:56.657Z,75.60
2017-09-12T23:15:24.200Z,76.10
2017-09-12T23:17:51.716Z,76.20
2017-09-12T23:20:19.988Z,76.10
2017-09-12T23:22:48.228Z,76.00
2017-09-12T23:25:15.712Z,75.90
2017-09-12T23:27:43.957Z,75.90
2017-09-12T23:30:11.477Z,75.80
2017-09-12T23:32:38.982Z,75.90
2017-09-12T23:35:07.418Z,75.80
2017-09-12T23:37:34.909Z,76.10
2017-09-12T23:40:02.395Z,75.30
2017-09-12T23:42:30.630Z,75.90
2017-09-12T23:44:58.150Z,75.90
2017-09-12T23:47:25.772Z,76.30
2017-09-12T23:49:53.387Z,75.60
2017-09-12T23:52:21.047Z,75.70
2017-09-12T23:54:49.129Z,75.70
2017-09-12T23:57:16.618Z,76.30
2017-09-12T23:59:44.098Z,76.70
